Tiempo atmosférico en la estación meteorológica de Amieva, Panizales, Asturias (360 m.)



Fecha
DESCASC
Temp. máxima en grados centígrados (hora)
DESCASC
Temp. mínima en grados centígrados (hora)
DESCASC
Temp. media en grados centígrados
DESCASC
Racha de viento máxima en m/sg (hora)
DESCASC
Velocidad máxima media en intervalos de 10 minutos(hora)
DESCASC
Precipitaciones diarias en mm
DESCASC
Precipitaciones de 00:00 a 06:00 en mm
DESCASC
Precipitaciones de 06:00 a 12:00 en mm
DESCASC
Precipitaciones de 12:00 a 18:00 en mm
DESCASC
Precipitaciones de 18:00 a 24:00 en mm
DESCASC
18-01-2018 13.9 (15:30) 1.9 (09:20) 7.9 4.72 (15:30) 2.5 (16:00) 0 0 0 0 0
17-01-2018 15.3 (00:00) 3.3 (23:20) 9.3 8.06 (04:30) 3.06 (12:00) 0 0 0 0 0
16-01-2018 20.9 (15:10) 8.9 (06:20) 14.9 11.39 (21:10) 2.78 (21:50) 0 0 0 0 0
15-01-2018 12.8 (15:20) 3.3 (04:30) 8.1 12.5 (15:20) 6.94 (17:10) 0 0 0 0 0
14-01-2018 9.8 (15:20) 3.7 (00:00) 6.8 3.61 (20:00) 1.67 (12:20) 0 0 0 0 0
13-01-2018 11.3 (02:30) 4.8 (00:00) 8.1 15 (04:00) 9.17 (03:20) 3.8 0 1.6 2 0.2
12-01-2018 8.7 (15:10) 2.6 (00:00) 5.6 6.11 (23:30) 2.5 (22:00) 0.2 0.2 0 0 0
11-01-2018 8.3 (15:00) 3.9 (00:00) 6.1 8.89 (02:00) 3.33 (02:00) 11.2 2.2 5 0.4 3.6
10-01-2018 12 (14:10) 5.4 (00:00) 8.7 18.89 (13:10) 8.06 (13:40) 0.2 0 0 0.2 0
09-01-2018 10.7 (16:00) 4.8 (00:00) 7.8 -- (--) -- (--) -- 0 -- 1.8 0
08-01-2018 8.4 (18:50) 2.1 (00:00) 5.2 6.11 (18:50) 3.61 (18:50) 0 0 0 0 0
07-01-2018 5.5 (18:10) 0.7 (00:00) 3.1 5.83 (18:00) 2.5 (18:00) 36 15 19.2 1.4 0.4
06-01-2018 5.5 (14:40) 3.1 (00:00) 4.3 3.33 (23:59) 1.94 (12:30) 1 0 0 0 1
05-01-2018 16.2 (01:00) 5.3 (00:00) 10.8 21.67 (01:40) 9.72 (04:00) 11.6 0 8.6 2 1
04-01-2018 17 (18:50) 10.5 (07:20) 13.8 12.5 (23:50) 6.94 (21:10) 0 0 0 0 0
03-01-2018 20.3 (13:00) 13 (00:00) 16.6 10 (02:10) 5.28 (02:20) 0 0 0 0 0
02-01-2018 18.6 (15:30) 9.8 (00:00) 14.2 11.94 (15:50) 6.94 (15:50) 0 0 0 0 0
01-01-2018 18.4 (14:20) 6.3 (00:00) 12.3 19.17 (10:30) 10.56 (10:20) 1.8 0 0 0 1.8
31-12-2017 16 (11:30) 7 (00:00) 11.5 17.78 (05:20) 8.61 (04:20) 6.4 0 0 6.4 0
30-12-2017 19.4 (15:10) 9.4 (00:00) 14.4 15.56 (00:30) 8.33 (20:20) 0 0 0 0 0
29-12-2017 18.2 (13:50) 8.5 (00:00) 13.4 13.33 (23:59) 6.67 (22:00) 3 1 2 0 0
28-12-2017 12.6 (15:50) 4.8 (00:00) 8.7 13.61 (11:10) 3.61 (11:00) 9.4 1.4 7.8 0.2 0
27-12-2017 9.6 (02:50) 4.9 (00:00) 7.3 14.17 (02:00) 5.83 (00:30) 18 3.2 7.8 3.8 3.2
26-12-2017 13 (21:40) 4.4 (00:00) 8.7 18.61 (17:50) 11.11 (17:50) 10.2 0 0 0.2 10
25-12-2017 14.1 (11:20) 3.6 (00:00) 8.9 19.72 (15:40) 9.72 (15:20) 1.2 0 0 0 1.2
24-12-2017 12.8 (14:40) 1.1 (00:00) 7 2.5 (15:20) 1.39 (15:40) 0 0 0 0 0
23-12-2017 12.7 (14:20) 2.9 (00:00) 7.8 4.17 (14:10) 2.22 (14:10) 0 0 0 0 0
22-12-2017 12.8 (15:30) 2.3 (00:00) 7.6 5.28 (14:00) 2.22 (15:40) -- -- -- 0 0

Gráficas

Temp. máximas Temp. mínimas Temp. medias Precipitaciones Rachas de viento máximas Velocidades máximas media en intervalos de 10 minutos

Datos horarios

Fecha y hora oficial Temperatura (ºC) Velocidad del viento (km/h) Dirección del viento Racha (km/h) Dirección de racha Precipitación (mm) Presión (hPa) Tendencia (hPa) Humedad (%)
2018-01-20 23:00:00 16 6 Norte 28 Sudoeste 0 -- -- 61
2018-01-20 22:00:00 16 6 Norte 21 Sudoeste 0 -- -- 62
2018-01-20 21:00:00 15.9 6 Nordeste 19 Noroeste 0 -- -- 63
2018-01-20 20:00:00 15.5 3 Norte 12 Sudeste 0 -- -- 65
2018-01-20 19:00:00 14.7 0 Calma 14 Nordeste 0 -- -- 70
2018-01-20 18:00:00 15.4 3 Norte 15 Nordeste 0 -- -- 66
2018-01-20 17:00:00 16 5 Sur 18 Sudeste 0 -- -- 62
2018-01-20 16:00:00 15.5 8 Sudeste 31 Sur 0 -- -- 66
2018-01-20 15:00:00 15.5 12 Sudeste 28 Sudoeste 0 -- -- 66
2018-01-20 14:00:00 15.9 3 Este 13 Sudoeste 0 -- -- 61
2018-01-20 13:00:00 15.3 8 Noroeste 22 Norte 0 -- -- 61
2018-01-20 12:00:00 14.2 3 Norte 12 Noroeste 0 -- -- 65
2018-01-20 11:00:00 12.8 5 Este 22 Nordeste 0 -- -- 61
2018-01-20 10:00:00 9.2 3 Norte 13 Sudoeste 0 -- -- 59
2018-01-20 09:00:00 7.9 6 Noroeste 14 Nordeste 0 -- -- 64
2018-01-20 08:00:00 6.7 0 Calma 6 Oeste 0 -- -- 67
2018-01-20 07:00:00 7.7 2 Sudoeste 13 Oeste 0 -- -- 66
2018-01-20 06:00:00 8.8 2 Sudoeste 8 Sudoeste 0 -- -- 63
2018-01-20 05:00:00 8.4 4 Oeste 10 Sudoeste 0 -- -- 69
2018-01-20 04:00:00 8 2 Sudoeste 12 Sudeste 0 -- -- 71
2018-01-20 03:00:00 7.6 2 Sudoeste 9 Oeste 0 -- -- 74
2018-01-20 02:00:00 7.1 4 Sudoeste 23 Este 0 -- -- 78
2018-01-20 01:00:00 6.7 4 Oeste 22 Sudeste 0 -- -- 83
2018-01-20 00:00:00 6.3 0 Calma 8 Sur 0 -- -- 89
2018-01-19 23:00:00 7.9 0 Calma 7 Noroeste 0 -- -- 84
2018-01-19 22:00:00 8 3 Nordeste 6 Norte 0 -- -- 82
2018-01-19 21:00:00 8.1 0 Calma 7 Sudoeste 0 -- -- 82
2018-01-19 20:00:00 8.3 3 Nordeste 5 Nordeste 0 -- -- 83
2018-01-19 19:00:00 8.6 0 Calma 6 Norte 0 -- -- 80
2018-01-19 18:00:00 9.2 2 Nordeste 16 Sudoeste 0 -- -- 75
2018-01-19 17:00:00 10.8 4 Norte 11 Norte 0 -- -- 71
2018-01-19 16:00:00 11.4 2 Sudeste 13 Sudeste 0 -- -- 76
2018-01-19 15:00:00 10.4 4 Sudeste 11 Este 0 -- -- 79
2018-01-19 14:00:00 9.5 6 Norte 10 Este 0 -- -- 81
2018-01-19 13:00:00 8.9 3 Este 16 Noroeste 0.2 -- -- 88
2018-01-19 12:00:00 9.1 0 Calma 13 Norte 0.4 -- -- 98
2018-01-19 11:00:00 9.1 4 Oeste 9 Oeste 0.4 -- -- 96
2018-01-19 10:00:00 9.1 2 Norte 9 Sur 0.2 -- -- 94
2018-01-19 09:00:00 8.8 0 Calma 6 Oeste 0 -- -- 86
2018-01-19 08:00:00 9.4 0 Calma 6 Nordeste 0 -- -- 85
2018-01-19 07:00:00 9.5 4 Nordeste 10 Noroeste 0 -- -- 84
2018-01-19 06:00:00 9.3 2 Oeste 9 Sudoeste 0 -- -- 83
2018-01-19 05:00:00 9.1 0 Calma 6 Sur 0 -- -- 84
2018-01-19 04:00:00 9 3 Oeste 7 Sudoeste 0 -- -- 85
2018-01-19 03:00:00 8.4 5 Noroeste 12 Sur 0 -- -- 87
2018-01-19 02:00:00 9.2 2 Este 6 Sur 0 -- -- 82
2018-01-19 01:00:00 9.3 2 Noroeste 5 Noroeste 0 -- -- 81
2018-01-19 00:00:00 9.3 0 Calma 9 Sudoeste 0 -- -- 81
2018-01-18 23:00:00 8.9 0 Calma 6 Oeste 0 -- -- 81
2018-01-18 22:00:00 8.7 3 Oeste 9 Oeste 0 -- -- 82
2018-01-18 21:00:00 8.1 2 Noroeste 7 Oeste 0 -- -- 86
2018-01-18 20:00:00 7.3 0 Calma 4 Noroeste 0 -- -- 89
2018-01-18 19:00:00 7.4 2 Norte 6 Noroeste 0 -- -- 87
2018-01-18 18:00:00 9.4 0 Calma 9 Oeste 0 -- -- 80
2018-01-18 17:00:00 12.2 5 Oeste 16 Oeste 0 -- -- 69
2018-01-18 16:00:00 13.6 9 Sudoeste 17 Sudoeste 0 -- -- 61
2018-01-18 15:00:00 13.3 6 Oeste 16 Sudoeste 0 -- -- 62
2018-01-18 14:00:00 13 7 Sudoeste 13 Sudoeste 0 -- -- 61
2018-01-18 13:00:00 10.9 5 Sur 9 Sur 0 -- -- 66
2018-01-18 12:00:00 8.4 3 Sur 7 Sudeste 0 -- -- 75
2018-01-18 11:00:00 6.3 3 Sudoeste 6 Oeste 0 -- -- 84
2018-01-18 10:00:00 2.2 0 Calma 4 Noroeste 0 -- -- 94
2018-01-18 09:00:00 2 0 Calma 7 Noroeste 0 -- -- 92
2018-01-18 08:00:00 3.6 0 Calma 3 Sudoeste 0 -- -- 83
2018-01-18 07:00:00 3.5 0 Calma 8 Sudoeste 0 -- -- 82
2018-01-18 06:00:00 3.7 0 Calma 5 Oeste 0 -- -- 81
2018-01-18 05:00:00 4 0 Calma 8 Nordeste 0 -- -- 79
2018-01-18 04:00:00 2.9 0 Calma 8 Nordeste 0 -- -- 89
2018-01-18 03:00:00 2.3 0 Calma 3 Noroeste 0 -- -- 94
2018-01-18 02:00:00 2.9 0 Calma 5 Noroeste 0 -- -- 90
2018-01-18 01:00:00 2.8 0 Calma 4 Oeste 0 -- -- 93
2018-01-18 00:00:00 3.3 0 Calma 3 Oeste 0 -- -- 92
2018-01-17 23:00:00 3.7 0 Calma 4 Oeste 0 -- -- 92
2018-01-17 22:00:00 4.4 0 Calma 5 Oeste 0 -- -- 90
2018-01-17 21:00:00 5.4 2 Oeste 6 Sur 0 -- -- 88
2018-01-17 20:00:00 5.8 2 Noroeste 6 Sudoeste 0 -- -- 87
2018-01-17 19:00:00 6.5 2 Nordeste 5 Norte 0 -- -- 83
2018-01-17 18:00:00 8.4 0 Calma 6 Sur 0 -- -- 78
2018-01-17 17:00:00 11.3 4 Sur 8 Sur 0 -- -- 63
2018-01-17 16:00:00 11.9 4 Sudoeste 15 Oeste 0 -- -- 57
2018-01-17 15:00:00 12.9 4 Noroeste 14 Oeste 0 -- -- 58
2018-01-17 14:00:00 11.7 2 Sudeste 7 Sur 0 -- -- 56
2018-01-17 13:00:00 11.2 6 Sudeste 14 Este 0 -- -- 59
2018-01-17 12:00:00 10.2 11 Sudeste 18 Sur 0 -- -- 67
2018-01-17 11:00:00 8.9 6 Norte 16 Norte 0 -- -- 75
2018-01-17 10:00:00 9.6 6 Oeste 17 Sudoeste 0 -- -- 68
2018-01-17 09:00:00 9.7 3 Norte 18 Norte 0 -- -- 67
2018-01-17 08:00:00 9.7 9 Norte 15 Norte 0 -- -- 69
2018-01-17 07:00:00 9.9 6 Nordeste 20 Sudoeste 0 -- -- 71
2018-01-17 06:00:00 10 4 Norte 18 Oeste 0 -- -- 76
2018-01-17 05:00:00 10.5 3 Norte 29 Oeste 0 -- -- 77
2018-01-17 04:00:00 11.9 7 Noroeste 24 Nordeste 0 -- -- 72
2018-01-17 03:00:00 12.5 9 Norte 27 Oeste 0 -- -- 65
2018-01-17 02:00:00 13.3 8 Nordeste 17 Norte 0 -- -- 62
2018-01-17 01:00:00 13.3 4 Sudeste 18 Nordeste 0 -- -- 71
2018-01-17 00:00:00 15.3 8 Noroeste 35 Sudoeste 0 -- -- 60
2018-01-16 23:00:00 16 7 Este 28 Oeste 0 -- -- 56
2018-01-16 22:00:00 16.2 7 Norte 41 Oeste 0 -- -- 57
2018-01-16 21:00:00 15.9 6 Oeste 19 Noroeste 0 -- -- 59
2018-01-16 20:00:00 15.5 3 Oeste 17 Norte 0 -- -- 60
2018-01-16 19:00:00 15.8 4 Sudoeste 18 Norte 0 -- -- 59
2018-01-16 18:00:00 17.5 4 Sudeste 19 Noroeste 0 -- -- 51
2018-01-16 17:00:00 18.5 5 Sur 13 Sur 0 -- -- 49
2018-01-16 16:00:00 20.2 5 Sudoeste 17 Oeste 0 -- -- 46
2018-01-16 15:00:00 20.8 5 Sur 13 Sur 0 -- -- 49
2018-01-16 14:00:00 19.8 5 Sudoeste 14 Oeste 0 -- -- 54
2018-01-16 13:00:00 18.5 6 Sur 12 Sudoeste 0 -- -- 57
2018-01-16 12:00:00 16.9 3 Sudoeste 10 Sudoeste 0 -- -- 62
2018-01-16 11:00:00 14.7 4 Este 13 Norte 0 -- -- 67
2018-01-16 10:00:00 11.2 4 Noroeste 9 Sudeste 0 -- -- 78
2018-01-16 09:00:00 10.4 4 Norte 12 Este 0 -- -- 79
2018-01-16 08:00:00 10.3 5 Este 12 Noroeste 0 -- -- 79
2018-01-16 07:00:00 9.3 5 Norte 11 Oeste 0 -- -- 79
2018-01-16 06:00:00 9.5 2 Nordeste 10 Norte 0 -- -- 78
2018-01-16 05:00:00 10 2 Noroeste 16 Oeste 0 -- -- 76
2018-01-16 04:00:00 9.8 5 Nordeste 9 Nordeste 0 -- -- 79
2018-01-16 03:00:00 9.6 2 Oeste 6 Oeste 0 -- -- 81
2018-01-16 02:00:00 10.7 0 Calma 10 Sudoeste 0 -- -- 77
2018-01-16 01:00:00 11.3 2 Oeste 13 Sudoeste 0 -- -- 74
2018-01-16 00:00:00 11.3 2 Sur 14 Noroeste 0 -- -- 74
2018-01-15 23:00:00 10.6 4 Sur 14 Sur 0 -- -- 74
2018-01-15 22:00:00 10.7 2 Noroeste 9 Oeste 0 -- -- 72
2018-01-15 21:00:00 10.7 2 Sur 16 Sur 0 -- -- 70
2018-01-15 20:00:00 11.3 8 Noroeste 20 Sudeste 0 -- -- 67
2018-01-15 19:00:00 12 13 Sur 35 Sudeste 0 -- -- 65
2018-01-15 18:00:00 11.9 15 Sur 39 Sudeste 0 -- -- 62
2018-01-15 17:00:00 12 22 Sudeste 40 Sudeste 0 -- -- 53
2018-01-15 16:00:00 12.8 19 Sudeste 45 Sudeste 0 -- -- 42
2018-01-15 15:00:00 12.6 21 Sudeste 37 Sudeste 0 -- -- 34
2018-01-15 14:00:00 11.5 10 Sudeste 25 Sudeste 0 -- -- 38
2018-01-15 13:00:00 12 16 Sudeste 36 Sudeste 0 -- -- 37
2018-01-15 12:00:00 9.6 12 Sur 31 Sudeste 0 -- -- 43
2018-01-15 11:00:00 6.4 8 Sur 24 Sur 0 -- -- 68
2018-01-15 10:00:00 3.6 0 Calma 13 Oeste 0 -- -- 81
2018-01-15 09:00:00 3.7 2 Sudoeste 12 Sudoeste 0 -- -- 82
2018-01-15 08:00:00 3.8 3 Noroeste 12 Sur 0 -- -- 84
2018-01-15 07:00:00 4.1 3 Sudoeste 16 Este 0 -- -- 84
2018-01-15 06:00:00 4.1 4 Sudoeste 21 Sur 0 -- -- 86
2018-01-15 05:00:00 3.5 2 Oeste 9 Sudoeste 0 -- -- 92
2018-01-15 04:00:00 4 2 Sudoeste 8 Sudoeste 0 -- -- 91
2018-01-15 03:00:00 4.5 4 Sudoeste 12 Sudoeste 0 -- -- 92
2018-01-15 02:00:00 5 3 Sudeste 9 Sur 0 -- -- 93
2018-01-15 01:00:00 5.6 0 Calma 5 Noroeste 0 -- -- 94
2018-01-15 00:00:00 6 0 Calma 5 Oeste 0 -- -- 94
2018-01-14 23:00:00 6.2 0 Calma 6 Oeste 0 -- -- 92
2018-01-14 22:00:00 6.4 0 Calma 4 Nordeste 0 -- -- 89
2018-01-14 21:00:00 6.7 0 Calma 5 Noroeste 0 -- -- 86
2018-01-14 20:00:00 7.4 6 Norte 13 Norte 0 -- -- 78
2018-01-14 19:00:00 7.2 2 Sudoeste 5 Sur 0 -- -- 83
2018-01-14 18:00:00 7.6 0 Calma 7 Sudeste 0 -- -- 82
2018-01-14 17:00:00 8.4 3 Oeste 9 Oeste 0 -- -- 73
2018-01-14 16:00:00 9 3 Oeste 10 Sudoeste 0 -- -- 69
2018-01-14 15:00:00 9.1 4 Este 10 Norte 0 -- -- 72
2018-01-14 14:00:00 8.9 0 Calma 7 Noroeste 0 -- -- 67
2018-01-14 13:00:00 9.4 4 Sur 11 Sur 0 -- -- 70
2018-01-14 12:00:00 7.1 3 Noroeste 5 Sudoeste 0 -- -- 90
2018-01-14 11:00:00 5.5 0 Calma 5 Oeste 0 -- -- 89
2018-01-14 10:00:00 5 0 Calma 3 Noroeste 0 -- -- 92
2018-01-14 09:00:00 4.9 0 Calma 6 Sudeste 0 -- -- 91
2018-01-14 08:00:00 4.6 0 Calma 3 Sudeste 0 -- -- 93
2018-01-14 07:00:00 4.4 0 Calma 11 Este 0 -- -- 93
2018-01-14 06:00:00 4.5 0 Calma 6 Sudoeste 0 -- -- 93
2018-01-14 05:00:00 4.9 2 Sudeste 4 Sur 0 -- -- 92
2018-01-14 04:00:00 4.9 0 Calma 5 Sudeste 0 -- -- 91
2018-01-14 03:00:00 4.8 0 Calma 8 Sudoeste 0 -- -- 92
2018-01-14 02:00:00 4.6 2 Oeste 5 Noroeste 0 -- -- 95
2018-01-14 01:00:00 4.6 3 Oeste 5 Oeste 0 -- -- 93
2018-01-14 00:00:00 5 0 Calma 6 Sudoeste 0 -- -- 96
2018-01-13 23:00:00 5.1 0 Calma 12 Sur 0 -- -- 95
2018-01-13 22:00:00 5 2 Oeste 10 Sudoeste 0.2 -- -- 94
2018-01-13 21:00:00 5.8 2 Este 13 Oeste 0 -- -- 92
2018-01-13 20:00:00 5.7 3 Oeste 8 Oeste 0 -- -- 92
2018-01-13 19:00:00 6 5 Noroeste 10 Sudeste 0 -- -- 91
2018-01-13 18:00:00 6.2 0 Calma 13 Sur 0.2 -- -- 91
2018-01-13 17:00:00 6.3 3 Sudoeste 21 Sur 0 -- -- 89
2018-01-13 16:00:00 6.6 12 Sur 25 Sur 0.8 -- -- 89
2018-01-13 15:00:00 6.9 6 Sur 21 Sudeste 0.2 -- -- 88
2018-01-13 14:00:00 7.4 12 Sudeste 20 Sudeste 0.6 -- -- 83
2018-01-13 13:00:00 8.2 10 Sudeste 23 Sudeste 0.2 -- -- 77
2018-01-13 12:00:00 8 12 Sudeste 27 Sudeste 0 -- -- 80
2018-01-13 11:00:00 7.9 15 Sudeste 27 Este 0.4 -- -- 79
2018-01-13 10:00:00 7.7 18 Sudeste 31 Sudeste 1 -- -- 80
2018-01-13 09:00:00 8.2 18 Sudeste 34 Sudeste 0.2 -- -- 75
2018-01-13 08:00:00 8.9 21 Este 48 Este 0 -- -- 66
2018-01-13 07:00:00 10.6 22 Sudeste 40 Este 0 -- -- 46
2018-01-13 06:00:00 10.9 15 Sudeste 42 Sur 0 -- -- 41
2018-01-13 05:00:00 10.8 26 Sudeste 49 Sudeste 0 -- -- 41
2018-01-13 04:00:00 10.7 28 Sudeste 54 Sudeste 0 -- -- 42
2018-01-13 03:00:00 11.1 26 Sudeste 48 Sudeste 0 -- -- 40
2018-01-13 02:00:00 11 21 Sudeste 42 Sudeste 0 -- -- 42
2018-01-13 01:00:00 10.9 23 Sudeste 42 Este 0 -- -- 46
2018-01-13 00:00:00 7.8 5 Sudoeste 22 Sudeste 0 -- -- 62
2018-01-12 23:00:00 6.6 5 Norte 10 Nordeste 0 -- -- 70
2018-01-12 22:00:00 6.9 9 Norte 15 Noroeste 0 -- -- 77
2018-01-12 21:00:00 6.4 4 Norte 8 Norte 0 -- -- 82
2018-01-12 20:00:00 6 3 Oeste 6 Oeste 0 -- -- 88
2018-01-12 19:00:00 6.2 3 Norte 5 Norte 0 -- -- 88
2018-01-12 18:00:00 7.3 0 Calma 4 Sudoeste 0 -- -- 84
2018-01-12 17:00:00 8.2 0 Calma 5 Oeste 0 -- -- 81
2018-01-12 16:00:00 8.5 0 Calma 4 Sudoeste 0 -- -- 76
2018-01-12 15:00:00 8.6 0 Calma 6 Sudoeste 0 -- -- 80
2018-01-12 14:00:00 8 0 Calma 6 Sudoeste 0 -- -- 82
2018-01-12 13:00:00 7.5 2 Sur 6 Sur 0 -- -- 84
2018-01-12 12:00:00 6.8 4 Sur 6 Sur 0 -- -- 82
2018-01-12 11:00:00 6 2 Sur 5 Sudoeste 0 -- -- 84
2018-01-12 10:00:00 3.4 4 Sur 10 Sur 0 -- -- 91
2018-01-12 09:00:00 3.2 3 Norte 10 Noroeste 0 -- -- 93
2018-01-12 08:00:00 3.4 3 Noroeste 14 Sur 0 -- -- 93
2018-01-12 07:00:00 2.8 2 Sudoeste 9 Sudoeste 0 -- -- 97
2018-01-12 06:00:00 2.8 0 Calma 3 Oeste 0 -- -- 98
2018-01-12 05:00:00 3.6 0 Calma 4 Sudoeste 0 -- -- 97
2018-01-12 04:00:00 5.3 0 Calma 6 Oeste 0 -- -- 95
2018-01-12 03:00:00 5.5 2 Sudoeste 8 Sudoeste 0 -- -- 97
2018-01-12 02:00:00 4.8 0 Calma 6 Oeste 0 -- -- 97
2018-01-12 01:00:00 5.9 3 Noroeste 6 Norte 0.2 -- -- 98
2018-01-12 00:00:00 6.1 0 Calma 7 Oeste 0 -- -- 99
2018-01-11 23:00:00 6 2 Noroeste 6 Nordeste 0.6 -- -- 100
2018-01-11 22:00:00 5.9 2 Noroeste 7 Oeste 0.4 -- -- 98
2018-01-11 21:00:00 6 2 Oeste 10 Este 1.2 -- -- 96
2018-01-11 20:00:00 5.9 5 Este 17 Sur 1 -- -- 96
2018-01-11 19:00:00 5.8 5 Sur 17 Sudeste 0.4 -- -- 94
2018-01-11 18:00:00 6.2 5 Este 13 Sudeste 0.4 -- -- 90
2018-01-11 17:00:00 7.6 7 Sudeste 22 Noroeste 0 -- -- 75
2018-01-11 16:00:00 8 6 Oeste 20 Norte 0 -- -- 66
2018-01-11 15:00:00 8.3 4 Oeste 17 Norte 0 -- -- 66
2018-01-11 14:00:00 7.8 4 Este 26 Oeste 0 -- -- 65
2018-01-11 13:00:00 6.9 7 Nordeste 20 Oeste 0 -- -- 72
2018-01-11 12:00:00 5.9 4 Norte 19 Sur 0 -- -- 82
2018-01-11 11:00:00 4.8 5 Sudoeste 14 Sur 0.4 -- -- 91
2018-01-11 10:00:00 4.2 7 Nordeste 17 Norte 0.6 -- -- 92
2018-01-11 09:00:00 4.5 10 Norte 21 Sur 2 -- -- 85
2018-01-11 08:00:00 4.5 5 Nordeste 18 Nordeste 0.6 -- -- 87
2018-01-11 07:00:00 4.4 11 Este 21 Nordeste 1.4 -- -- 88
2018-01-11 06:00:00 4.1 3 Este 13 Este 0.8 -- -- 92
2018-01-11 05:00:00 4.7 4 Nordeste 14 Sur 1 -- -- 87
2018-01-11 04:00:00 5.5 8 Norte 29 Oeste 0.4 -- -- 78
2018-01-11 03:00:00 6.4 6 Sudeste 25 Oeste 0 -- -- 71
2018-01-11 02:00:00 7.2 12 Oeste 32 Noroeste 0 -- -- 67
2018-01-11 01:00:00 7.5 6 Oeste 21 Este 0 -- -- 63
2018-01-11 00:00:00 7.5 4 Este 22 Sur 0 -- -- 58
2018-01-10 23:00:00 6.7 6 Norte 15 Norte 0 -- -- 59
2018-01-10 22:00:00 6.7 5 Noroeste 17 Sudeste 0 -- -- 65
2018-01-10 21:00:00 7.2 7 Sur 29 Sudeste 0 -- -- 63
2018-01-10 20:00:00 7 9 Sudeste 36 Este 0 -- -- 64
2018-01-10 19:00:00 5.4 4 Este 31 Norte 0 -- -- 80
2018-01-10 18:00:00 8.4 8 Sudeste 19 Sudeste 0 -- -- 63
2018-01-10 17:00:00 9.1 2 Norte 32 Sudoeste 0 -- -- 68
2018-01-10 16:00:00 10.5 5 Sudeste 8 Sudeste 0 -- -- 70
2018-01-10 15:00:00 10.1 3 Noroeste 37 Sudeste 0 -- -- 71
2018-01-10 14:00:00 11.4 25 Sudeste 68 Este 0 -- -- 58
2018-01-10 13:00:00 9.9 20 Sudeste 54 Este 0.2 -- -- 60
2018-01-10 12:00:00 10.8 20 Este 51 Este 0 -- -- 53
2018-01-10 11:00:00 10.3 24 Sudeste 48 Sudeste 0 -- -- 51
2018-01-10 10:00:00 9 23 Sudeste 41 Sudeste 0 -- -- 55
2018-01-10 09:00:00 8.8 21 Sudeste 39 Sudeste 0 -- -- 57
2018-01-10 08:00:00 8.9 17 Sudeste 39 Sudeste 0 -- -- 59
2018-01-10 07:00:00 7.8 9 Sudeste 26 Sudeste 0 -- -- 67
2018-01-10 06:00:00 7.6 3 Sur 26 Sudeste 0 -- -- 69
2018-01-10 05:00:00 8.8 15 Sudeste 26 Sudeste 0 -- -- 64
2018-01-10 04:00:00 7.7 2 Oeste 28 Sudeste 0 -- -- 71
2018-01-10 03:00:00 7.8 2 Este 30 Este 0 -- -- 69
2018-01-10 02:00:00 8.5 12 Sudeste 21 Este 0 -- -- 64
2018-01-10 01:00:00 8 2 Sur 20 Sudeste 0 -- -- 66
2018-01-10 00:00:00 9.2 10 Sudeste 28 Este 0 -- -- 59
2018-01-09 23:00:00 9.7 17 Este 39 Sudeste 0 -- -- 57
2018-01-09 22:00:00 9.2 16 Sudeste 39 Sudeste 0 -- -- 57
2018-01-09 21:00:00 9.2 23 Sudeste 44 Sur 0 -- -- 57
2018-01-09 20:00:00 9.4 26 Sudeste 42 Sudeste 0 -- -- 56
2018-01-09 19:00:00 9 28 Sudeste 48 Este 0 -- -- 59
2018-01-09 18:00:00 9.2 21 Sudeste 46 Sur 0 -- -- 58
2018-01-09 17:00:00 9.7 26 Sudeste 56 Sur 0 -- -- 56
2018-01-09 16:00:00 10.7 28 Sudeste 66 Sudeste 0 -- -- 59
2018-01-09 15:00:00 8.2 25 Sudeste 54 Este 0.2 -- -- 66
2018-01-09 14:00:00 7 23 Sudeste 59 Sur 1.2 -- -- 80
2018-01-09 13:00:00 7.4 22 Sudeste 55 Sur 0.4 -- -- 74
2018-01-09 12:00:00 9.5 21 Sudeste 50 Este 0 -- -- 53
2018-01-09 11:00:00 9.6 26 Sudeste 51 Sudeste 0 -- -- 50
2018-01-09 10:00:00 9.3 26 Sudeste 54 Este 0 -- -- 50
2018-01-09 09:00:00 9.3 25 Sudeste 51 Sudeste 0 -- -- 53
2018-01-09 08:00:00 -- -- -- -- -- -- -- -- --
2018-01-09 07:00:00 9.2 28 Sudeste 49 Sudeste 0 -- -- 55
2018-01-09 06:00:00 9.1 27 Sudeste 44 Sudeste 0 -- -- 58
2018-01-09 05:00:00 9 24 Sudeste 42 Sudeste 0 -- -- 59
2018-01-09 04:00:00 8.8 22 Sudeste 42 Sudeste 0 -- -- 61
2018-01-09 03:00:00 8.3 15 Sudeste 32 Sudeste 0 -- -- 64
2018-01-09 02:00:00 5.4 3 Oeste 15 Sudeste 0 -- -- 81
2018-01-09 01:00:00 5.1 0 Calma 6 Noroeste 0 -- -- 84
2018-01-09 00:00:00 5.4 2 Noroeste 7 Nordeste 0 -- -- 84
2018-01-08 23:00:00 4.9 0 Calma 3 Noroeste 0 -- -- 87
2018-01-08 22:00:00 6.5 2 Oeste 8 Sur 0 -- -- 81
2018-01-08 21:00:00 7.3 5 Sur 13 Sur 0 -- -- 79
2018-01-08 20:00:00 7.6 4 Sur 16 Sur 0 -- -- 76
2018-01-08 19:00:00 8.4 8 Sur 22 Sudeste 0 -- -- 71
2018-01-08 18:00:00 7.6 2 Sudoeste 5 Sudoeste 0 -- -- 82
2018-01-08 17:00:00 8 2 Norte 5 Noroeste 0 -- -- 82
2018-01-08 16:00:00 8 3 Noroeste 7 Noroeste 0 -- -- 80
2018-01-08 15:00:00 8.2 0 Calma 8 Sur 0 -- -- 75
2018-01-08 14:00:00 7.7 0 Calma 7 Sudoeste 0 -- -- 71
2018-01-08 13:00:00 6.6 3 Sur 12 Sudeste 0 -- -- 78
2018-01-08 12:00:00 5.6 0 Calma 4 Sur 0 -- -- 86
2018-01-08 11:00:00 4.8 4 Sur 13 Sudeste 0 -- -- 86
2018-01-08 10:00:00 3.1 3 Sudoeste 9 Sudoeste 0 -- -- 89
2018-01-08 09:00:00 2.4 2 Nordeste 6 Norte 0 -- -- 93
2018-01-08 08:00:00 2.4 2 Este 8 Sudeste 0 -- -- 92
2018-01-08 07:00:00 2.5 0 Calma 9 Sur 0 -- -- 93
2018-01-08 06:00:00 3.1 0 Calma 8 Sur 0 -- -- 94
2018-01-08 05:00:00 2.9 3 Nordeste 6 Norte 0 -- -- 95
2018-01-08 04:00:00 2.8 0 Calma 6 Nordeste 0 -- -- 98
2018-01-08 03:00:00 3.1 2 Norte 5 Norte 0 -- -- 95
2018-01-08 02:00:00 2.7 0 Calma 5 Sudoeste 0 -- -- 97
2018-01-08 01:00:00 2.8 0 Calma 8 Sur 0 -- -- 97
2018-01-08 00:00:00 2.9 0 Calma 5 Nordeste 0 -- -- 98
2018-01-07 23:00:00 3.2 0 Calma 9 Sur 0 -- -- 98
2018-01-07 22:00:00 3.2 0 Calma 5 Sur 0 -- -- 97
2018-01-07 21:00:00 3.7 0 Calma 7 Este 0 -- -- 95
2018-01-07 20:00:00 4.7 3 Oeste 14 Sudeste 0 -- -- 95
2018-01-07 19:00:00 4.8 3 Noroeste 19 Sur 0.4 -- -- 98
2018-01-07 18:00:00 5.3 9 Sudeste 21 Sudeste 0 -- -- 94
2018-01-07 17:00:00 4.7 3 Sudoeste 9 Oeste 0 -- -- 98
2018-01-07 16:00:00 4.7 4 Sudoeste 10 Sudoeste 0.2 -- -- 97
2018-01-07 15:00:00 4.3 3 Sudoeste 10 Sur 0 -- -- 98
2018-01-07 14:00:00 3.8 0 Calma 6 Sur 0 -- -- 99
2018-01-07 13:00:00 3.3 3 Sur 13 Sur 1.2 -- -- 99
2018-01-07 12:00:00 2.2 0 Calma 7 Sur 3 -- -- 100
2018-01-07 11:00:00 1.1 3 Este 8 Sudeste 3.4 -- -- 100
2018-01-07 10:00:00 0.8 0 Calma 8 Norte 3.4 -- -- 99
2018-01-07 09:00:00 1.5 7 Norte 12 Norte 3.6 -- -- 97
2018-01-07 08:00:00 1.9 7 Norte 12 Norte 2.6 -- -- 97
2018-01-07 07:00:00 1.8 3 Nordeste 9 Norte 3.2 -- -- 97
2018-01-07 06:00:00 2.3 3 Nordeste 10 Oeste 4.6 -- -- 100
2018-01-07 05:00:00 2.3 6 Norte 11 Norte 4.8 -- -- 97
2018-01-07 04:00:00 3.3 2 Oeste 11 Oeste 2.4 -- -- 99
2018-01-07 03:00:00 3.5 0 Calma 7 Oeste 1.4 -- -- 99
2018-01-07 02:00:00 3.8 4 Noroeste 17 Nordeste 1 -- -- 95
2018-01-07 01:00:00 3.7 3 Noroeste 12 Norte 0.8 -- -- 96
2018-01-07 00:00:00 3.6 5 Norte 12 Norte 0.4 -- -- 99
2018-01-06 23:00:00 3.9 0 Calma 8 Norte 0 -- -- 96
2018-01-06 22:00:00 3.8 4 Norte 6 Norte 0.2 -- -- 96
2018-01-06 21:00:00 4.1 3 Norte 6 Norte 0 -- -- 96
2018-01-06 20:00:00 4.1 0 Calma 5 Nordeste 0.2 -- -- 96
2018-01-06 19:00:00 4.3 0 Calma 5 Nordeste 0.2 -- -- 92
2018-01-06 18:00:00 4.7 0 Calma 9 Nordeste 0 -- -- 86
2018-01-06 17:00:00 5.2 0 Calma 6 Sudeste 0 -- -- 86
2018-01-06 16:00:00 5.4 3 Este 6 Este 0 -- -- 79
2018-01-06 15:00:00 5.4 3 Sudoeste 8 Sudoeste 0 -- -- 85
2018-01-06 14:00:00 5.3 3 Oeste 11 Sur 0 -- -- 86
2018-01-06 13:00:00 5.1 6 Sur 11 Sur 0 -- -- 85
2018-01-06 12:00:00 5 0 Calma 3 Noroeste 0 -- -- 90
2018-01-06 11:00:00 4.5 0 Calma 4 Noroeste 0 -- -- 91
2018-01-06 10:00:00 4 0 Calma 5 Norte 0 -- -- 88
2018-01-06 09:00:00 3.4 4 Norte 7 Norte 0 -- -- 88
2018-01-06 08:00:00 3.2 0 Calma 3 Norte 0 -- -- 92
2018-01-06 07:00:00 3.5 0 Calma 3 Noroeste 0 -- -- 90
2018-01-06 06:00:00 3.6 0 Calma 4 Noroeste 0 -- -- 93
2018-01-06 05:00:00 3.8 0 Calma 5 Norte 0 -- -- 92
2018-01-06 04:00:00 4.3 0 Calma 4 Norte 0 -- -- 91
2018-01-06 03:00:00 4.2 0 Calma 5 Norte 0 -- -- 93
2018-01-06 02:00:00 4.5 0 Calma 6 Norte 0 -- -- 90
2018-01-06 01:00:00 4.9 3 Noroeste 6 Oeste 0 -- -- 93
2018-01-06 00:00:00 5.3 2 Norte 8 Norte 0 -- -- 86
2018-01-05 23:00:00 5.6 3 Norte 10 Norte 0 -- -- 79
2018-01-05 22:00:00 5.9 3 Nordeste 6 Oeste 0 -- -- 96
2018-01-05 21:00:00 6.4 0 Calma 5 Nordeste 0 -- -- 94
2018-01-05 20:00:00 6.6 2 Nordeste 9 Oeste 0 -- -- 95
2018-01-05 19:00:00 7 3 Sudeste 8 Sur 1 -- -- 94
2018-01-05 18:00:00 7.5 3 Este 10 Norte 0.4 -- -- 93
2018-01-05 17:00:00 8.1 4 Norte 12 Norte 0.4 -- -- 85
2018-01-05 16:00:00 8.6 3 Oeste 8 Nordeste 0.8 -- -- 94
2018-01-05 15:00:00 9.3 0 Calma 13 Norte 0.4 -- -- 87
2018-01-05 14:00:00 10.6 2 Sudoeste 8 Sudoeste 0 -- -- 79
2018-01-05 13:00:00 10.6 3 Sur 7 Sur 0 -- -- 81
2018-01-05 12:00:00 8.9 2 Norte 8 Nordeste 0 -- -- 88
2018-01-05 11:00:00 8.7 6 Noroeste 41 Sudeste 0.2 -- -- 84
2018-01-05 10:00:00 8.2 12 Sudeste 21 Sudeste 0.8 -- -- 84
2018-01-05 09:00:00 7.9 3 Sur 13 Sudoeste 1.6 -- -- 92
2018-01-05 08:00:00 8.6 6 Norte 20 Oeste 5 -- -- 89
2018-01-05 07:00:00 11.5 4 Oeste 45 Sur 1 -- -- 83
2018-01-05 06:00:00 14.2 24 Sudeste 49 Sudeste 0 -- -- 57
2018-01-05 05:00:00 14.6 29 Sudeste 54 Sudeste 0 -- -- 56
2018-01-05 04:00:00 15 35 Sudeste 63 Sudeste 0 -- -- 54
2018-01-05 03:00:00 15.5 31 Sudeste 62 Sudeste 0 -- -- 52
2018-01-05 02:00:00 16.2 30 Sudeste 78 Sur 0 -- -- 47
2018-01-05 01:00:00 16.2 22 Sudeste 44 Sur 0 -- -- 47
2018-01-05 00:00:00 16 22 Sudeste 45 Este 0 -- -- 50
2018-01-04 23:00:00 15.6 20 Sudeste 44 Este 0 -- -- 54
2018-01-04 22:00:00 15.9 19 Sudeste 43 Sudeste 0 -- -- 52
2018-01-04 21:00:00 16.7 22 Sudeste 40 Sudeste 0 -- -- 48
2018-01-04 20:00:00 17 20 Sudeste 38 Sudeste 0 -- -- 49
2018-01-04 19:00:00 17 17 Sudeste 35 Sur 0 -- -- 49
2018-01-04 18:00:00 16.2 14 Sudeste 28 Este 0 -- -- 53
2018-01-04 17:00:00 14.5 2 Norte 8 Este 0 -- -- 72
2018-01-04 16:00:00 15.3 2 Sudoeste 5 Sudoeste 0 -- -- 70
2018-01-04 15:00:00 15.9 0 Calma 8 Sudoeste 0 -- -- 66
2018-01-04 14:00:00 16.9 5 Sudoeste 9 Sudoeste 0 -- -- 64
2018-01-04 13:00:00 16.2 5 Sudoeste 11 Sudoeste 0 -- -- 69
2018-01-04 12:00:00 13.5 3 Sudoeste 7 Sur 0 -- -- 76
2018-01-04 11:00:00 12.5 0 Calma 6 Norte 0 -- -- 78
2018-01-04 10:00:00 11.1 0 Calma 9 Noroeste 0 -- -- 83
2018-01-04 09:00:00 11.6 6 Noroeste 13 Noroeste 0 -- -- 77
2018-01-04 08:00:00 11 2 Norte 12 Noroeste 0 -- -- 80
2018-01-04 07:00:00 10.9 2 Noroeste 8 Noroeste 0 -- -- 82
2018-01-04 06:00:00 11.7 4 Nordeste 11 Oeste 0 -- -- 79
2018-01-04 05:00:00 13.5 7 Noroeste 14 Sudoeste 0 -- -- 74
2018-01-04 04:00:00 12.8 3 Nordeste 16 Nordeste 0 -- -- 77
2018-01-04 03:00:00 11.9 4 Nordeste 16 Nordeste 0 -- -- 82
2018-01-04 02:00:00 11.2 2 Norte 6 Norte 0 -- -- 85
2018-01-04 01:00:00 12 2 Noroeste 10 Oeste 0 -- -- 83
2018-01-04 00:00:00 13.1 4 Noroeste 8 Noroeste 0 -- -- 82
2018-01-03 23:00:00 13.7 4 Oeste 10 Sudoeste 0 -- -- 81
2018-01-03 22:00:00 14.5 2 Noroeste 12 Sudeste 0 -- -- 79
2018-01-03 21:00:00 15.3 0 Calma 6 Oeste 0 -- -- 79
2018-01-03 20:00:00 15.7 2 Noroeste 6 Oeste 0 -- -- 79
2018-01-03 19:00:00 16.4 0 Calma 5 Noroeste 0 -- -- 76
2018-01-03 18:00:00 16.8 2 Noroeste 9 Sur 0 -- -- 75
2018-01-03 17:00:00 17.9 3 Noroeste 13 Sudeste 0 -- -- 71
2018-01-03 16:00:00 18.6 0 Calma 4 Sur 0 -- -- 71
2018-01-03 15:00:00 18.9 0 Calma 6 Sudoeste 0 -- -- 68
2018-01-03 14:00:00 19.1 2 Sudoeste 8 Sur 0 -- -- 67
2018-01-03 13:00:00 20.3 7 Sur 12 Sur 0 -- -- 64
2018-01-03 12:00:00 18.5 5 Sudoeste 9 Oeste 0 -- -- 69
2018-01-03 11:00:00 17 4 Sudoeste 9 Oeste 0 -- -- 70
2018-01-03 10:00:00 16 5 Nordeste 8 Nordeste 0 -- -- 75
2018-01-03 09:00:00 15.9 3 Este 15 Noroeste 0 -- -- 74
2018-01-03 08:00:00 17.2 5 Norte 12 Norte 0 -- -- 66
2018-01-03 07:00:00 14.7 3 Oeste 13 Oeste 0 -- -- 72
2018-01-03 06:00:00 14.5 3 Nordeste 12 Sudeste 0 -- -- 72
2018-01-03 05:00:00 13.9 2 Sur 10 Sudoeste 0 -- -- 73
2018-01-03 04:00:00 15.4 3 Sur 20 Sur 0 -- -- 67
2018-01-03 03:00:00 15.6 8 Este 36 Sudeste 0 -- -- 66
2018-01-03 02:00:00 15 14 Sur 34 Sur 0 -- -- 69
2018-01-03 01:00:00 14.7 6 Sur 25 Sudeste 0 -- -- 70
2018-01-03 00:00:00 16.6 13 Sudeste 39 Sudeste 0 -- -- 62
2018-01-02 23:00:00 17.2 19 Sudeste 40 Sur 0 -- -- 59
2018-01-02 22:00:00 16.9 22 Sudeste 34 Sudeste 0 -- -- 62
2018-01-02 21:00:00 17.2 22 Sudeste 40 Sudeste 0 -- -- 61
2018-01-02 20:00:00 16.9 21 Sudeste 37 Sudeste 0 -- -- 63
2018-01-02 19:00:00 16.4 11 Sudeste 33 Sudeste 0 -- -- 64
2018-01-02 18:00:00 16.7 17 Sudeste 30 Sudeste 0 -- -- 62
2018-01-02 17:00:00 17.2 16 Sudeste 37 Sudeste 0 -- -- 60
2018-01-02 16:00:00 18.3 24 Sudeste 43 Sudeste 0 -- -- 58
2018-01-02 15:00:00 17.9 20 Sudeste 37 Sudeste 0 -- -- 64
2018-01-02 14:00:00 15.2 4 Sur 19 Sur 0 -- -- 75
2018-01-02 13:00:00 15.5 9 Sudeste 23 Sudoeste 0 -- -- 70
2018-01-02 12:00:00 15.1 11 Sudeste 33 Sur 0 -- -- 70
2018-01-02 11:00:00 14.2 16 Sudeste 37 Sudeste 0 -- -- 73
2018-01-02 10:00:00 14.1 21 Sudeste 41 Sudeste 0 -- -- 73
2018-01-02 09:00:00 14.9 15 Sudeste 32 Sur 0 -- -- 66
2018-01-02 08:00:00 13.7 9 Sudeste 27 Sur 0 -- -- 68
2018-01-02 07:00:00 13.8 10 Sudeste 31 Sur 0 -- -- 67
2018-01-02 06:00:00 14 15 Sudeste 30 Sudeste 0 -- -- 66
2018-01-02 05:00:00 13.9 15 Sur 37 Sur 0 -- -- 62
2018-01-02 04:00:00 13.1 13 Sudeste 33 Sudeste 0 -- -- 68
2018-01-02 03:00:00 11.6 15 Sur 29 Sur 0 -- -- 83
2018-01-02 02:00:00 10.1 0 Calma 5 Noroeste 0 -- -- 96
2018-01-02 01:00:00 10.3 0 Calma 5 Noroeste 0 -- -- 98
2018-01-02 00:00:00 10.2 3 Oeste 12 Noroeste 0 -- -- 97
2018-01-01 23:00:00 10.7 3 Sudeste 9 Este 0.6 -- -- 97
2018-01-01 22:00:00 11 0 Calma 9 Nordeste 0.2 -- -- 94
2018-01-01 21:00:00 10.9 2 Norte 10 Norte 0.8 -- -- 95
2018-01-01 20:00:00 11.5 3 Noroeste 8 Este 0.2 -- -- 90
2018-01-01 19:00:00 12.6 2 Norte 19 Oeste 0 -- -- 81
2018-01-01 18:00:00 14.4 5 Nordeste 32 Oeste 0 -- -- 66
2018-01-01 17:00:00 14.6 13 Nordeste 49 Oeste 0 -- -- 66
2018-01-01 16:00:00 16.7 16 Sudoeste 42 Oeste 0 -- -- 53
2018-01-01 15:00:00 17.5 12 Oeste 36 Oeste 0 -- -- 43
2018-01-01 14:00:00 17.2 9 Sudoeste 37 Norte 0 -- -- 44
2018-01-01 13:00:00 15.8 21 Sudeste 48 Sudeste 0 -- -- 46
2018-01-01 12:00:00 14 35 Sudeste 64 Este 0 -- -- 49
2018-01-01 11:00:00 12.8 37 Sudeste 69 Este 0 -- -- 51
2018-01-01 10:00:00 11 24 Sudeste 58 Sudeste 0 -- -- 53
2018-01-01 09:00:00 10.5 26 Sudeste 50 Sudeste 0 -- -- 53
2018-01-01 08:00:00 10.3 19 Sudeste 47 Este 0 -- -- 51
2018-01-01 07:00:00 9.6 21 Sudeste 47 Sudeste 0 -- -- 53
2018-01-01 06:00:00 9.7 21 Este 42 Sudeste 0 -- -- 49
2018-01-01 05:00:00 9.6 19 Sudeste 40 Este 0 -- -- 49
2018-01-01 04:00:00 9.1 10 Sudeste 33 Sudeste 0 -- -- 49
2018-01-01 03:00:00 8.6 13 Sur 30 Sudeste 0 -- -- 52
2018-01-01 02:00:00 6.7 4 Este 17 Sur 0 -- -- 65
2018-01-01 01:00:00 7.5 8 Sudeste 23 Este 0 -- -- 59
2018-01-01 00:00:00 7.7 5 Este 15 Sudeste 0 -- -- 61
2017-12-31 23:00:00 8.6 3 Este 15 Nordeste 0 -- -- 56
2017-12-31 22:00:00 7.6 7 Sur 21 Este 0 -- -- 66
2017-12-31 21:00:00 8.5 6 Nordeste 24 Noroeste 0 -- -- 58
2017-12-31 20:00:00 8.1 5 Norte 25 Sur 0 -- -- 62
2017-12-31 19:00:00 8 6 Norte 25 Sudeste 0 -- -- 63
2017-12-31 18:00:00 7.8 5 Sur 54 Sudoeste 2 -- -- 67
2017-12-31 17:00:00 9.4 4 Oeste 31 Sudoeste 0 -- -- 68
2017-12-31 16:00:00 9.3 3 Sur 29 Este 0 -- -- 79
2017-12-31 15:00:00 8.9 7 Nordeste 22 Norte 1.8 -- -- 81
2017-12-31 14:00:00 9.2 6 Norte 16 Oeste 2.4 -- -- 85
2017-12-31 13:00:00 11.1 7 Norte 42 Sudeste 0.2 -- -- 81
2017-12-31 12:00:00 15.3 23 Sur 49 Sudeste 0 -- -- 51
2017-12-31 11:00:00 14.7 19 Sudeste 41 Este 0 -- -- 54
2017-12-31 10:00:00 14.2 17 Sudeste 49 Sudeste 0 -- -- 54
2017-12-31 09:00:00 14.2 19 Sudeste 61 Sur 0 -- -- 53
2017-12-31 08:00:00 14 27 Sudeste 59 Sur 0 -- -- 54
2017-12-31 07:00:00 13.7 23 Sudeste 54 Sur 0 -- -- 55
2017-12-31 06:00:00 13.9 24 Sur 64 Sur 0 -- -- 55
2017-12-31 05:00:00 14.2 29 Sur 63 Sur 0 -- -- 55
2017-12-31 04:00:00 14.3 20 Sur 54 Sur 0 -- -- 54
2017-12-31 03:00:00 14.6 20 Sudeste 54 Sur 0 -- -- 53
2017-12-31 02:00:00 15 22 Sudeste 47 Sudeste 0 -- -- 53
2017-12-31 01:00:00 15.5 21 Sudeste 51 Sudeste 0 -- -- 51